ROF3MJ LROP-LRBV
Flight info
| Callsign | ROF3MJ |
|---|---|
| Flight time | 0h 38m |
| Altitude | 13000 |
| Route | DENAK DCT LAPKA/N0249F140 DCT OBCAS |
| Aircraft | C160/M-SDFGHIRTUY/S |
Departure
| Time | 2026-05-05 15:10 |
|---|---|
| Airport | Bucharest Henri Coandă International Airport (LROP) |
Arrival
| Time | 2026-05-05 15:49 |
|---|---|
| Airport | Brașov-Ghimbav International Airport (LRBV) |
| Time | Latitude | Longitude | Altitude | Speed | Heading |
|---|---|---|---|---|---|
| 2026-05-05 14:35 | 44.56105 | 26.08605 | 318 ft | 0 kts | 264° |
| 2026-05-05 14:55 | 44.56105 | 26.08607 | 318 ft | 3 kts | 264° |
| 2026-05-05 14:55 | 44.56108 | 26.08643 | 317 ft | 3 kts | 265° |
| 2026-05-05 14:55 | 44.56105 | 26.08660 | 318 ft | 2 kts | 326° |
| 2026-05-05 14:56 | 44.56095 | 26.08664 | 315 ft | 2 kts | 353° |
| 2026-05-05 14:56 | 44.56094 | 26.08664 | 315 ft | 0 kts | 353° |
| 2026-05-05 15:05 | 44.56096 | 26.08664 | 318 ft | 0 kts | 353° |
| 2026-05-05 15:06 | 44.56123 | 26.08659 | 317 ft | 9 kts | 353° |
| 2026-05-05 15:07 | 44.56220 | 26.08641 | 318 ft | 19 kts | 352° |
| 2026-05-05 15:07 | 44.56380 | 26.08628 | 318 ft | 28 kts | 354° |
| 2026-05-05 15:07 | 44.56571 | 26.08661 | 320 ft | 25 kts | 72° |
| 2026-05-05 15:07 | 44.56560 | 26.08922 | 316 ft | 31 kts | 84° |
| 2026-05-05 15:08 | 44.56586 | 26.09261 | 316 ft | 39 kts | 84° |
| 2026-05-05 15:08 | 44.56617 | 26.09671 | 318 ft | 45 kts | 84° |
| 2026-05-05 15:08 | 44.56652 | 26.10131 | 320 ft | 50 kts | 84° |
| 2026-05-05 15:08 | 44.56704 | 26.10612 | 319 ft | 45 kts | 82° |
| 2026-05-05 15:09 | 44.56691 | 26.10807 | 318 ft | 7 kts | 216° |
| 2026-05-05 15:09 | 44.56699 | 26.10747 | 316 ft | 9 kts | 269° |
| 2026-05-05 15:09 | 44.56692 | 26.10662 | 317 ft | 31 kts | 263° |
| 2026-05-05 15:09 | 44.56640 | 26.09951 | 320 ft | 109 kts | 265° |
| 2026-05-05 15:10 | 44.56531 | 26.08695 | 372 ft | 144 kts | 259° |
| 2026-05-05 15:10 | 44.56400 | 26.07231 | 687 ft | 157 kts | 261° |
| 2026-05-05 15:10 | 44.56174 | 26.05759 | 1435 ft | 149 kts | 251° |
| 2026-05-05 15:10 | 44.56040 | 26.04363 | 2175 ft | 144 kts | 264° |
| 2026-05-05 15:11 | 44.56052 | 26.02928 | 2739 ft | 152 kts | 266° |
| 2026-05-05 15:11 | 44.56118 | 26.01458 | 3401 ft | 151 kts | 271° |
| 2026-05-05 15:11 | 44.56173 | 26.00004 | 4136 ft | 145 kts | 269° |
| 2026-05-05 15:11 | 44.56347 | 25.98639 | 4733 ft | 145 kts | 299° |
| 2026-05-05 15:12 | 44.57175 | 25.97922 | 5357 ft | 143 kts | 346° |
| 2026-05-05 15:12 | 44.58145 | 25.97927 | 6015 ft | 141 kts | 15° |
| 2026-05-05 15:12 | 44.58930 | 25.98709 | 6731 ft | 138 kts | 40° |
| 2026-05-05 15:12 | 44.59581 | 25.99629 | 7422 ft | 132 kts | 37° |
| 2026-05-05 15:13 | 44.60249 | 26.00488 | 8067 ft | 129 kts | 35° |
| 2026-05-05 15:13 | 44.60925 | 26.01353 | 8696 ft | 134 kts | 35° |
| 2026-05-05 15:13 | 44.61638 | 26.02213 | 9391 ft | 136 kts | 33° |
| 2026-05-05 15:13 | 44.62360 | 26.03058 | 10055 ft | 135 kts | 32° |
| 2026-05-05 15:14 | 44.63098 | 26.03861 | 10699 ft | 134 kts | 29° |
| 2026-05-05 15:14 | 44.63856 | 26.04605 | 11345 ft | 132 kts | 28° |
| 2026-05-05 15:14 | 44.64600 | 26.05361 | 11991 ft | 132 kts | 30° |
| 2026-05-05 15:14 | 44.65326 | 26.06136 | 12653 ft | 130 kts | 30° |
| 2026-05-05 15:15 | 44.66048 | 26.06898 | 13325 ft | 129 kts | 31° |
| 2026-05-05 15:15 | 44.66761 | 26.07650 | 13974 ft | 127 kts | 30° |
| 2026-05-05 15:15 | 44.67472 | 26.08393 | 14540 ft | 127 kts | 30° |
| 2026-05-05 15:15 | 44.68201 | 26.09092 | 15113 ft | 127 kts | 21° |
| 2026-05-05 15:16 | 44.69036 | 26.09226 | 15683 ft | 129 kts | 352° |
| 2026-05-05 15:16 | 44.69975 | 26.08890 | 15858 ft | 160 kts | 347° |
| 2026-05-05 15:16 | 44.71127 | 26.08498 | 16058 ft | 181 kts | 348° |
| 2026-05-05 15:16 | 44.72553 | 26.08030 | 15253 ft | 240 kts | 349° |
| 2026-05-05 15:17 | 44.74330 | 26.07494 | 14359 ft | 278 kts | 350° |
| 2026-05-05 15:17 | 44.76295 | 26.06905 | 13401 ft | 298 kts | 349° |
| 2026-05-05 15:17 | 44.78336 | 26.06290 | 12920 ft | 296 kts | 349° |
| 2026-05-05 15:17 | 44.80289 | 26.05710 | 13013 ft | 280 kts | 349° |
| 2026-05-05 15:18 | 44.82175 | 26.05177 | 13012 ft | 273 kts | 350° |
| 2026-05-05 15:18 | 44.84027 | 26.04681 | 13006 ft | 269 kts | 351° |
| 2026-05-05 15:18 | 44.85859 | 26.04195 | 13005 ft | 267 kts | 350° |
| 2026-05-05 15:18 | 44.87676 | 26.03684 | 13002 ft | 265 kts | 349° |
| 2026-05-05 15:19 | 44.89480 | 26.03163 | 13005 ft | 264 kts | 349° |
| 2026-05-05 15:19 | 44.91257 | 26.02649 | 13006 ft | 264 kts | 349° |
| 2026-05-05 15:19 | 44.93060 | 26.02129 | 12999 ft | 264 kts | 349° |
| 2026-05-05 15:19 | 44.94857 | 26.01611 | 13008 ft | 264 kts | 349° |
| 2026-05-05 15:20 | 44.96658 | 26.01094 | 13010 ft | 264 kts | 349° |
| 2026-05-05 15:20 | 44.98461 | 26.00577 | 13004 ft | 264 kts | 349° |
| 2026-05-05 15:20 | 45.00267 | 26.00061 | 13007 ft | 265 kts | 349° |
| 2026-05-05 15:20 | 45.02058 | 25.99547 | 13002 ft | 256 kts | 349° |
| 2026-05-05 15:21 | 45.03745 | 25.99067 | 13004 ft | 242 kts | 349° |
| 2026-05-05 15:21 | 45.05256 | 25.98636 | 13003 ft | 201 kts | 349° |
| 2026-05-05 15:21 | 45.06496 | 25.98281 | 13000 ft | 169 kts | 349° |
| 2026-05-05 15:21 | 45.07581 | 25.97970 | 12999 ft | 151 kts | 349° |
| 2026-05-05 15:22 | 45.08565 | 25.97689 | 12997 ft | 139 kts | 349° |
| 2026-05-05 15:22 | 45.09477 | 25.97430 | 13010 ft | 129 kts | 350° |
| 2026-05-05 15:22 | 45.10396 | 25.97170 | 13022 ft | 142 kts | 349° |
| 2026-05-05 15:22 | 45.11461 | 25.96877 | 13024 ft | 169 kts | 350° |
| 2026-05-05 15:23 | 45.12693 | 25.96547 | 13022 ft | 190 kts | 349° |
| 2026-05-05 15:23 | 45.14043 | 25.96180 | 13035 ft | 204 kts | 350° |
| 2026-05-05 15:23 | 45.15473 | 25.95780 | 13031 ft | 214 kts | 349° |
| 2026-05-05 15:23 | 45.16889 | 25.95379 | 13015 ft | 192 kts | 349° |
| 2026-05-05 15:24 | 45.18100 | 25.95034 | 13007 ft | 163 kts | 349° |
| 2026-05-05 15:24 | 45.19132 | 25.94737 | 12999 ft | 142 kts | 349° |
| 2026-05-05 15:24 | 45.20043 | 25.94477 | 13002 ft | 127 kts | 349° |
| 2026-05-05 15:24 | 45.20916 | 25.94227 | 13030 ft | 132 kts | 350° |
| 2026-05-05 15:25 | 45.21839 | 25.93971 | 13030 ft | 139 kts | 349° |
| 2026-05-05 15:25 | 45.22802 | 25.93715 | 13030 ft | 143 kts | 351° |
| 2026-05-05 15:25 | 45.23795 | 25.93443 | 13031 ft | 147 kts | 350° |
| 2026-05-05 15:25 | 45.24809 | 25.93166 | 13032 ft | 150 kts | 350° |
| 2026-05-05 15:26 | 45.25832 | 25.92884 | 13025 ft | 152 kts | 350° |
| 2026-05-05 15:26 | 45.26875 | 25.92594 | 13018 ft | 153 kts | 349° |
| 2026-05-05 15:26 | 45.27854 | 25.91983 | 13035 ft | 157 kts | 329° |
| 2026-05-05 15:26 | 45.28725 | 25.91015 | 13019 ft | 161 kts | 324° |
| 2026-05-05 15:27 | 45.29603 | 25.90027 | 12796 ft | 173 kts | 325° |
| 2026-05-05 15:27 | 45.30560 | 25.88753 | 12115 ft | 205 kts | 307° |
| 2026-05-05 15:27 | 45.31137 | 25.86814 | 11512 ft | 220 kts | 288° |
| 2026-05-05 15:27 | 45.31381 | 25.84632 | 10907 ft | 227 kts | 277° |
| 2026-05-05 15:28 | 45.31448 | 25.82375 | 10294 ft | 229 kts | 271° |
| 2026-05-05 15:28 | 45.31349 | 25.80115 | 10009 ft | 238 kts | 265° |
| 2026-05-05 15:28 | 45.31113 | 25.77669 | 9928 ft | 251 kts | 262° |
| 2026-05-05 15:28 | 45.30745 | 25.75266 | 9862 ft | 250 kts | 257° |
| 2026-05-05 15:29 | 45.30216 | 25.72814 | 9943 ft | 265 kts | 252° |
| 2026-05-05 15:29 | 45.29579 | 25.70299 | 9838 ft | 278 kts | 251° |
| 2026-05-05 15:29 | 45.28993 | 25.67827 | 9430 ft | 245 kts | 256° |
| 2026-05-05 15:29 | 45.28650 | 25.65561 | 8625 ft | 230 kts | 262° |
| 2026-05-05 15:30 | 45.28479 | 25.63315 | 7733 ft | 226 kts | 266° |
| 2026-05-05 15:30 | 45.28556 | 25.61138 | 7050 ft | 214 kts | 281° |
| 2026-05-05 15:30 | 45.29025 | 25.59235 | 6491 ft | 201 kts | 296° |
| 2026-05-05 15:30 | 45.29601 | 25.57444 | 5907 ft | 195 kts | 289° |
| 2026-05-05 15:31 | 45.30095 | 25.55720 | 5480 ft | 182 kts | 306° |
| 2026-05-05 15:31 | 45.31037 | 25.54560 | 5049 ft | 197 kts | 330° |
| 2026-05-05 15:31 | 45.32429 | 25.53805 | 4870 ft | 223 kts | 345° |
| 2026-05-05 15:31 | 45.33928 | 25.53549 | 5363 ft | 209 kts | 354° |
| 2026-05-05 15:32 | 45.35342 | 25.53388 | 6303 ft | 195 kts | 354° |
| 2026-05-05 15:32 | 45.36633 | 25.53242 | 7373 ft | 180 kts | 351° |
| 2026-05-05 15:32 | 45.37895 | 25.53116 | 8090 ft | 187 kts | 359° |
| 2026-05-05 15:32 | 45.39249 | 25.53393 | 8533 ft | 207 kts | 18° |
| 2026-05-05 15:33 | 45.40499 | 25.54521 | 9041 ft | 220 kts | 39° |
| 2026-05-05 15:33 | 45.41633 | 25.55961 | 9894 ft | 213 kts | 38° |
| 2026-05-05 15:33 | 45.42722 | 25.57315 | 10713 ft | 209 kts | 37° |
| 2026-05-05 15:33 | 45.43789 | 25.58667 | 11284 ft | 200 kts | 38° |
| 2026-05-05 15:34 | 45.44883 | 25.59989 | 11581 ft | 224 kts | 36° |
| 2026-05-05 15:34 | 45.46120 | 25.61471 | 11812 ft | 240 kts | 36° |
| 2026-05-05 15:34 | 45.47514 | 25.62890 | 11959 ft | 255 kts | 30° |
| 2026-05-05 15:34 | 45.49077 | 25.64244 | 11930 ft | 270 kts | 31° |
| 2026-05-05 15:35 | 45.50544 | 25.65970 | 11905 ft | 279 kts | 48° |
| 2026-05-05 15:35 | 45.51574 | 25.68363 | 11855 ft | 289 kts | 60° |
| 2026-05-05 15:35 | 45.52486 | 25.70981 | 11617 ft | 299 kts | 60° |
| 2026-05-05 15:35 | 45.53500 | 25.73587 | 11393 ft | 300 kts | 57° |
| 2026-05-05 15:36 | 45.54571 | 25.76089 | 11182 ft | 297 kts | 56° |
| 2026-05-05 15:36 | 45.55646 | 25.78599 | 10952 ft | 296 kts | 56° |
| 2026-05-05 15:36 | 45.56723 | 25.81100 | 10724 ft | 295 kts | 56° |
| 2026-05-05 15:36 | 45.57833 | 25.83561 | 10513 ft | 294 kts | 54° |
| 2026-05-05 15:37 | 45.59175 | 25.85742 | 10299 ft | 292 kts | 40° |
| 2026-05-05 15:37 | 45.60231 | 25.86940 | 10148 ft | 292 kts | 32° |
| 2026-05-05 15:37 | 45.62005 | 25.88332 | 9943 ft | 291 kts | 23° |
| 2026-05-05 15:37 | 45.63841 | 25.89416 | 9018 ft | 286 kts | 20° |
| 2026-05-05 15:38 | 45.65704 | 25.90416 | 7978 ft | 286 kts | 19° |
| 2026-05-05 15:38 | 45.67561 | 25.91403 | 7022 ft | 276 kts | 19° |
| 2026-05-05 15:38 | 45.69219 | 25.92296 | 6523 ft | 234 kts | 19° |
| 2026-05-05 15:38 | 45.70626 | 25.93064 | 6215 ft | 202 kts | 17° |
| 2026-05-05 15:39 | 45.71920 | 25.93500 | 5893 ft | 182 kts | 6° |
| 2026-05-05 15:39 | 45.73135 | 25.93744 | 5519 ft | 172 kts | 3° |
| 2026-05-05 15:39 | 45.74310 | 25.93893 | 5053 ft | 169 kts | 2° |
| 2026-05-05 15:39 | 45.75447 | 25.94035 | 4737 ft | 160 kts | 2° |
| 2026-05-05 15:40 | 45.76535 | 25.94042 | 4397 ft | 155 kts | 347° |
| 2026-05-05 15:40 | 45.77566 | 25.93659 | 4060 ft | 152 kts | 342° |
| 2026-05-05 15:40 | 45.78568 | 25.93193 | 3692 ft | 152 kts | 331° |
| 2026-05-05 15:40 | 45.79224 | 25.91962 | 3791 ft | 164 kts | 290° |
| 2026-05-05 15:41 | 45.79701 | 25.90448 | 3739 ft | 190 kts | 296° |
| 2026-05-05 15:41 | 45.80396 | 25.88747 | 3735 ft | 204 kts | 301° |
| 2026-05-05 15:41 | 45.81168 | 25.86988 | 3739 ft | 212 kts | 300° |
| 2026-05-05 15:41 | 45.81927 | 25.85153 | 3735 ft | 217 kts | 298° |
| 2026-05-05 15:42 | 45.82670 | 25.83289 | 3969 ft | 213 kts | 298° |
| 2026-05-05 15:42 | 45.83408 | 25.81439 | 4406 ft | 214 kts | 298° |
| 2026-05-05 15:42 | 45.84153 | 25.79594 | 4822 ft | 214 kts | 299° |
| 2026-05-05 15:42 | 45.84905 | 25.77781 | 5347 ft | 206 kts | 300° |
| 2026-05-05 15:43 | 45.85625 | 25.76060 | 5988 ft | 200 kts | 300° |
| 2026-05-05 15:43 | 45.86361 | 25.74185 | 5860 ft | 227 kts | 297° |
| 2026-05-05 15:43 | 45.87112 | 25.72118 | 5764 ft | 242 kts | 296° |
| 2026-05-05 15:43 | 45.87708 | 25.69874 | 5976 ft | 236 kts | 274° |
| 2026-05-05 15:44 | 45.87295 | 25.67569 | 5692 ft | 258 kts | 236° |
| 2026-05-05 15:44 | 45.85883 | 25.65761 | 5031 ft | 278 kts | 218° |
| 2026-05-05 15:44 | 45.84457 | 25.63948 | 4953 ft | 272 kts | 221° |
| 2026-05-05 15:44 | 45.83025 | 25.62276 | 4994 ft | 246 kts | 222° |
| 2026-05-05 15:45 | 45.81579 | 25.61379 | 4683 ft | 214 kts | 207° |
| 2026-05-05 15:45 | 45.80225 | 25.60976 | 4308 ft | 187 kts | 194° |
| 2026-05-05 15:45 | 45.79064 | 25.60424 | 3772 ft | 173 kts | 201° |
| 2026-05-05 15:45 | 45.77968 | 25.59739 | 3249 ft | 165 kts | 205° |
| 2026-05-05 15:46 | 45.77026 | 25.58978 | 2921 ft | 150 kts | 210° |
| 2026-05-05 15:46 | 45.76065 | 25.58089 | 2747 ft | 185 kts | 215° |
| 2026-05-05 15:46 | 45.74978 | 25.56973 | 2568 ft | 196 kts | 216° |
| 2026-05-05 15:46 | 45.74045 | 25.55952 | 2365 ft | 144 kts | 218° |
| 2026-05-05 15:47 | 45.73320 | 25.55178 | 2148 ft | 119 kts | 213° |
| 2026-05-05 15:47 | 45.72628 | 25.54457 | 2011 ft | 134 kts | 213° |
| 2026-05-05 15:47 | 45.71900 | 25.53691 | 1844 ft | 128 kts | 215° |
| 2026-05-05 15:47 | 45.71215 | 25.52976 | 1767 ft | 106 kts | 217° |
| 2026-05-05 15:48 | 45.70729 | 25.52465 | 1767 ft | 61 kts | 216° |
| 2026-05-05 15:48 | 45.70433 | 25.52158 | 1766 ft | 52 kts | 218° |
| 2026-05-05 15:48 | 45.70133 | 25.51842 | 1766 ft | 55 kts | 216° |
| 2026-05-05 15:48 | 45.69834 | 25.51529 | 1763 ft | 54 kts | 216° |
| 2026-05-05 15:49 | 45.69642 | 25.51328 | 1767 ft | 19 kts | 214° |
| 2026-05-05 15:49 | 45.69560 | 25.51389 | 1764 ft | 18 kts | 127° |
| 2026-05-05 15:49 | 45.69538 | 25.51431 | 1764 ft | 0 kts | 127° |
| 2026-05-05 15:49 | 45.69536 | 25.51435 | 1764 ft | 3 kts | 127° |
| 2026-05-05 15:50 | 45.69504 | 25.51512 | 1766 ft | 13 kts | 120° |
| 2026-05-05 15:50 | 45.69454 | 25.51614 | 1766 ft | 0 kts | 125° |
| 2026-05-05 15:50 | 45.69456 | 25.51610 | 1766 ft | 0 kts | 125° |